PWSweather.com
Personal Weather Stations
Station Observations
SONYA
Sergiev PosadRU

Sergiev PosadRU

Lat: 56.28148651, Lon: 38.05462646

Elevation: 741

Station Type: Fine offset WH1091

Latest ConditionsUpdated 10:53:00 AM GMT+03:03 Sunday, Apr 23, 2017
Currently Today's Max Today's Min Today's Average
Temperature 37.8°F3.2°C 39.0°F3.9°C 34.5°F1.4°C 35.8°F2.1°C
Dew Point 30.3°F-0.9°C 32.9°F0.5°C 29.2°F-1.6°C 30.3°F-0.9°C
Winds 14.5 mph S23.3 kmh S 14.5 mph S23.3 kmh S - 7.6 mph 12.2 kmh
Wind Gusts 19.7 mph31.7 kmh 26.6 mph42.8 kmh - -
Humidity 66% 80% 65% 73%
Pressure 28.66 in970.5 mb 28.67 in970.9 mb 28.51 in965.5 mb -
Precipitation - 0.15 in3.8 mm - -
Hour Temp Dew Point Humidity Winds Wind Gusts Pressure Precip Precip Rate Daily Precip Total
10:53 AM 37.8°F3.2°C 30.3°F-0.9°C 66% 14.5 mph S23.3 kmh S 19.7 mph31.7 kmh 28.66 in970.5 mb 0.00 in0.0 mm 0.00 in0.0 mm 0.15 in3.8 mm
10:48 AM 37.9°F3.3°C 30.5°F-0.8°C 66% 13.6 mph SW21.9 kmh SW 22.1 mph35.6 kmh 28.67 in970.9 mb 0.00 in0.0 mm 0.00 in0.0 mm 0.15 in3.8 mm
10:43 AM 38.1°F3.4°C 30.9°F-0.6°C 67% 10.7 mph SE17.2 kmh SE 14.5 mph23.3 kmh 28.66 in970.5 mb 0.00 in0.0 mm 0.00 in0.0 mm 0.15 in3.8 mm
10:42 AM 38.1°F3.4°C 30.6°F-0.8°C 66% 4.5 mph SW7.2 kmh SW 7.6 mph12.2 kmh 28.66 in970.5 mb 0.00 in0.0 mm 0.00 in0.0 mm 0.15 in3.8 mm
10:38 AM 38.3°F3.5°C 30.5°F-0.8°C 65% 9.2 mph SSW14.8 kmh SSW 14.5 mph23.3 kmh 28.66 in970.5 mb 0.00 in0.0 mm 0.00 in0.0 mm 0.15 in3.8 mm
10:37 AM 38.3°F3.5°C 30.8°F-0.7°C 66% 13.6 mph S21.9 kmh S 19.7 mph31.7 kmh 28.66 in970.5 mb 0.00 in0.0 mm 0.00 in0.0 mm 0.15 in3.8 mm
10:33 AM 38.7°F3.7°C 31.1°F-0.5°C 66% 13.6 mph S21.9 kmh S 26.6 mph42.8 kmh 28.66 in970.5 mb 0.00 in0.0 mm 0.00 in0.0 mm 0.15 in3.8 mm
10:28 AM 38.8°F3.8°C 32.1°F0.1°C 69% 12.1 mph S19.5 kmh S 17.4 mph28.0 kmh 28.65 in970.2 mb 0.00 in0.0 mm 0.00 in0.0 mm 0.15 in3.8 mm
10:23 AM 39.0°F3.9°C 32.3°F0.2°C 69% 6.0 mph SW9.7 kmh SW 9.2 mph14.8 kmh 28.66 in970.5 mb 0.00 in0.0 mm 0.00 in0.0 mm 0.15 in3.8 mm
10:22 AM 39.0°F3.9°C 32.8°F0.4°C 71% 6.9 mph SSW11.1 kmh SSW 9.8 mph15.8 kmh 28.66 in970.5 mb 0.00 in0.0 mm 0.00 in0.0 mm 0.15 in3.8 mm
10:18 AM 38.5°F3.6°C 32.5°F0.3°C 72% 9.2 mph S14.8 kmh S 15.2 mph24.5 kmh 28.66 in970.5 mb 0.00 in0.0 mm 0.00 in0.0 mm 0.15 in3.8 mm
10:17 AM 38.8°F3.8°C 32.9°F0.5°C 72% 8.3 mph SW13.4 kmh SW 10.7 mph17.2 kmh 28.65 in970.2 mb 0.00 in0.0 mm 0.00 in0.0 mm 0.15 in3.8 mm
10:13 AM 37.9°F3.3°C 32.2°F0.1°C 73% 11.4 mph S18.3 kmh S 13.0 mph20.9 kmh 28.66 in970.5 mb 0.00 in0.0 mm 0.00 in0.0 mm 0.15 in3.8 mm
10:08 AM 37.4°F3.0°C 32.0°F0.0°C 74% 9.2 mph S14.8 kmh S 14.5 mph23.3 kmh 28.64 in969.9 mb 0.00 in0.0 mm 0.00 in0.0 mm 0.15 in3.8 mm
10:03 AM 37.2°F2.9°C 31.3°F-0.4°C 72% 12.1 mph S19.5 kmh S 15.9 mph25.6 kmh 28.65 in970.2 mb 0.00 in0.0 mm 0.00 in0.0 mm 0.15 in3.8 mm
09:58 AM 36.3°F2.4°C 31.2°F-0.4°C 75% 6.0 mph S9.7 kmh S 9.2 mph14.8 kmh 28.64 in969.9 mb 0.00 in0.0 mm 0.00 in0.0 mm 0.15 in3.8 mm
09:53 AM 36.1°F2.3°C 31.4°F-0.3°C 77% 9.8 mph SW15.8 kmh SW 16.8 mph27.0 kmh 28.65 in970.2 mb 0.00 in0.0 mm 0.00 in0.0 mm 0.15 in3.8 mm
09:48 AM 35.8°F2.1°C 31.1°F-0.5°C 77% 6.0 mph SW9.7 kmh SW 10.7 mph17.2 kmh 28.64 in969.9 mb 0.01 in0.3 mm 0.00 in0.0 mm 0.15 in3.8 mm
09:43 AM 35.4°F1.9°C 30.8°F-0.7°C 77% 8.3 mph S13.4 kmh S 10.7 mph17.2 kmh 28.64 in969.9 mb 0.01 in0.3 mm 0.00 in0.0 mm 0.15 in3.8 mm
09:42 AM 35.4°F1.9°C 30.5°F-0.8°C 76% 12.1 mph S19.5 kmh S 16.8 mph27.0 kmh 28.64 in969.9 mb 0.01 in0.3 mm 0.00 in0.0 mm 0.15 in3.8 mm
09:38 AM 36.0°F2.2°C 29.9°F-1.2°C 71% 10.7 mph S17.2 kmh S 17.4 mph28.0 kmh 28.64 in969.9 mb 0.01 in0.3 mm 0.00 in0.0 mm 0.15 in3.8 mm
09:37 AM 35.6°F2.0°C 30.0°F-1.1°C 73% 9.8 mph S15.8 kmh S 14.5 mph23.3 kmh 28.64 in969.9 mb 0.01 in0.3 mm 0.00 in0.0 mm 0.15 in3.8 mm
09:33 AM 36.7°F2.6°C 30.0°F-1.1°C 69% 12.1 mph SW19.5 kmh SW 15.9 mph25.6 kmh 28.63 in969.5 mb 0.01 in0.3 mm 0.00 in0.0 mm 0.15 in3.8 mm
09:28 AM 37.6°F3.1°C 31.6°F-0.2°C 72% 8.3 mph S13.4 kmh S 13.0 mph20.9 kmh 28.63 in969.5 mb 0.01 in0.3 mm 0.00 in0.0 mm 0.15 in3.8 mm
09:23 AM 38.1°F3.4°C 32.4°F0.2°C 73% 13.6 mph SW21.9 kmh SW 22.1 mph35.6 kmh 28.62 in969.2 mb 0.01 in0.3 mm 0.00 in0.0 mm 0.15 in3.8 mm
09:22 AM 38.1°F3.4°C 32.4°F0.2°C 73% 7.6 mph SW12.2 kmh SW 13.0 mph20.9 kmh 28.63 in969.5 mb 0.01 in0.3 mm 0.00 in0.0 mm 0.15 in3.8 mm
09:18 AM 37.2°F2.9°C 30.8°F-0.7°C 70% 8.3 mph S13.4 kmh S 11.4 mph18.3 kmh 28.63 in969.5 mb 0.01 in0.3 mm 0.00 in0.0 mm 0.15 in3.8 mm
09:17 AM 37.8°F3.2°C 32.1°F0.1°C 73% 9.8 mph S15.8 kmh S 16.8 mph27.0 kmh 28.62 in969.2 mb 0.01 in0.3 mm 0.00 in0.0 mm 0.15 in3.8 mm
09:13 AM 37.0°F2.8°C 30.9°F-0.6°C 71% 9.8 mph SW15.8 kmh SW 13.0 mph20.9 kmh 28.63 in969.5 mb 0.01 in0.3 mm 0.00 in0.0 mm 0.15 in3.8 mm
09:08 AM 36.5°F2.5°C 30.6°F-0.8°C 72% 9.2 mph SE14.8 kmh SE 14.5 mph23.3 kmh 28.62 in969.2 mb 0.01 in0.3 mm 0.00 in0.0 mm 0.15 in3.8 mm
09:03 AM 36.1°F2.3°C 30.3°F-0.9°C 72% 11.4 mph S18.3 kmh S 18.3 mph29.5 kmh 28.62 in969.2 mb 0.01 in0.3 mm 0.00 in0.0 mm 0.15 in3.8 mm
09:02 AM 36.1°F2.3°C 30.3°F-0.9°C 72% 8.3 mph SW13.4 kmh SW 13.0 mph20.9 kmh 28.62 in969.2 mb 0.01 in0.3 mm 0.00 in0.0 mm 0.15 in3.8 mm
08:58 AM 36.1°F2.3°C 30.3°F-0.9°C 72% 6.9 mph SE11.1 kmh SE 11.4 mph18.3 kmh 28.62 in969.2 mb 0.01 in0.3 mm 0.00 in0.0 mm 0.15 in3.8 mm
08:57 AM 36.1°F2.3°C 30.3°F-0.9°C 72% 9.2 mph S14.8 kmh S 13.6 mph21.9 kmh 28.62 in969.2 mb 0.01 in0.3 mm 0.00 in0.0 mm 0.15 in3.8 mm
08:53 AM 36.0°F2.2°C 30.1°F-1.1°C 72% 13.6 mph SW21.9 kmh SW 21.3 mph34.3 kmh 28.61 in968.8 mb 0.01 in0.3 mm 0.14 in3.6 mm 0.15 in3.8 mm
08:48 AM 36.0°F2.2°C 30.3°F-0.9°C 73% 7.6 mph SE12.2 kmh SE 10.7 mph17.2 kmh 28.61 in968.8 mb 0.00 in0.0 mm 0.00 in0.0 mm 0.14 in3.6 mm
08:43 AM 35.8°F2.1°C 30.2°F-1.0°C 73% 9.8 mph S15.8 kmh S 15.2 mph24.5 kmh 28.61 in968.8 mb 0.00 in0.0 mm 0.00 in0.0 mm 0.14 in3.6 mm
08:42 AM 35.8°F2.1°C 30.2°F-1.0°C 73% 6.0 mph SE9.7 kmh SE 9.2 mph14.8 kmh 28.61 in968.8 mb 0.00 in0.0 mm 0.00 in0.0 mm 0.14 in3.6 mm
08:38 AM 35.8°F2.1°C 30.2°F-1.0°C 73% 6.9 mph SW11.1 kmh SW 13.0 mph20.9 kmh 28.61 in968.8 mb 0.00 in0.0 mm 0.00 in0.0 mm 0.14 in3.6 mm
08:37 AM 35.8°F2.1°C 30.2°F-1.0°C 73% 9.2 mph S14.8 kmh S 14.5 mph23.3 kmh 28.61 in968.8 mb 0.00 in0.0 mm 0.00 in0.0 mm 0.14 in3.6 mm
08:33 AM 35.8°F2.1°C 30.2°F-1.0°C 73% 4.5 mph E7.2 kmh E 9.2 mph14.8 kmh 28.61 in968.8 mb 0.00 in0.0 mm 0.00 in0.0 mm 0.14 in3.6 mm
08:28 AM 35.6°F2.0°C 30.0°F-1.1°C 73% 6.9 mph S11.1 kmh S 15.2 mph24.5 kmh 28.61 in968.8 mb 0.00 in0.0 mm 0.00 in0.0 mm 0.14 in3.6 mm
08:23 AM 35.6°F2.0°C 30.0°F-1.1°C 73% 7.6 mph WSW12.2 kmh WSW 14.5 mph23.3 kmh 28.60 in968.5 mb 0.00 in0.0 mm 0.00 in0.0 mm 0.14 in3.6 mm
08:22 AM 35.6°F2.0°C 30.0°F-1.1°C 73% 11.4 mph SE18.3 kmh SE 14.5 mph23.3 kmh 28.60 in968.5 mb 0.00 in0.0 mm 0.00 in0.0 mm 0.14 in3.6 mm
08:18 AM 35.6°F2.0°C 30.0°F-1.1°C 73% 4.5 mph SE7.2 kmh SE 8.3 mph13.4 kmh 28.60 in968.5 mb 0.00 in0.0 mm 0.00 in0.0 mm 0.14 in3.6 mm
08:17 AM 35.6°F2.0°C 30.0°F-1.1°C 73% 6.0 mph S9.7 kmh S 12.1 mph19.5 kmh 28.61 in968.8 mb 0.00 in0.0 mm 0.00 in0.0 mm 0.14 in3.6 mm
08:13 AM 35.6°F2.0°C 30.0°F-1.1°C 73% 8.3 mph S13.4 kmh S 15.9 mph25.6 kmh 28.61 in968.8 mb 0.00 in0.0 mm 0.00 in0.0 mm 0.14 in3.6 mm
08:08 AM 35.6°F2.0°C 30.2°F-1.0°C 74% 6.9 mph S11.1 kmh S 9.8 mph15.8 kmh 28.60 in968.5 mb 0.00 in0.0 mm 0.00 in0.0 mm 0.14 in3.6 mm
08:03 AM 35.6°F2.0°C 30.2°F-1.0°C 74% 5.4 mph S8.7 kmh S 12.1 mph19.5 kmh 28.60 in968.5 mb 0.00 in0.0 mm 0.00 in0.0 mm 0.14 in3.6 mm
08:02 AM 35.6°F2.0°C 30.2°F-1.0°C 74% 6.0 mph S9.7 kmh S 10.7 mph17.2 kmh 28.60 in968.5 mb 0.00 in0.0 mm 0.00 in0.0 mm 0.14 in3.6 mm
07:58 AM 35.4°F1.9°C 30.3°F-0.9°C 75% 9.8 mph S15.8 kmh S 19.0 mph30.6 kmh 28.60 in968.5 mb 0.00 in0.0 mm 0.00 in0.0 mm 0.14 in3.6 mm
07:57 AM 35.6°F2.0°C 30.2°F-1.0°C 74% 9.2 mph S14.8 kmh S 14.5 mph23.3 kmh 28.60 in968.5 mb 0.00 in0.0 mm 0.00 in0.0 mm 0.14 in3.6 mm
07:53 AM 35.4°F1.9°C 30.3°F-0.9°C 75% 9.2 mph S14.8 kmh S 15.9 mph25.6 kmh 28.61 in968.8 mb 0.00 in0.0 mm 0.00 in0.0 mm 0.14 in3.6 mm
07:48 AM 35.4°F1.9°C 30.3°F-0.9°C 75% 8.3 mph SE13.4 kmh SE 19.0 mph30.6 kmh 28.59 in968.2 mb 0.00 in0.0 mm 0.00 in0.0 mm 0.14 in3.6 mm
07:43 AM 35.4°F1.9°C 30.3°F-0.9°C 75% 5.4 mph WSW8.7 kmh WSW 8.3 mph13.4 kmh 28.60 in968.5 mb 0.00 in0.0 mm 0.00 in0.0 mm 0.14 in3.6 mm
07:42 AM 35.4°F1.9°C 30.1°F-1.1°C 74% 9.2 mph SW14.8 kmh SW 12.1 mph19.5 kmh 28.60 in968.5 mb 0.00 in0.0 mm 0.00 in0.0 mm 0.14 in3.6 mm
07:38 AM 35.4°F1.9°C 30.1°F-1.1°C 74% 3.8 mph S6.1 kmh S 6.9 mph11.1 kmh 28.59 in968.2 mb 0.00 in0.0 mm 0.00 in0.0 mm 0.14 in3.6 mm
07:37 AM 35.4°F1.9°C 30.1°F-1.1°C 74% 4.5 mph E7.2 kmh E 8.3 mph13.4 kmh 28.60 in968.5 mb 0.00 in0.0 mm 0.00 in0.0 mm 0.14 in3.6 mm
07:33 AM 35.6°F2.0°C 30.0°F-1.1°C 73% 6.0 mph SE9.7 kmh SE 9.8 mph15.8 kmh 28.59 in968.2 mb 0.00 in0.0 mm 0.00 in0.0 mm 0.14 in3.6 mm
07:28 AM 35.6°F2.0°C 29.8°F-1.2°C 72% 10.7 mph S17.2 kmh S 13.6 mph21.9 kmh 28.59 in968.2 mb 0.00 in0.0 mm 0.00 in0.0 mm 0.14 in3.6 mm
07:23 AM 35.6°F2.0°C 29.8°F-1.2°C 72% 9.2 mph S14.8 kmh S 15.2 mph24.5 kmh 28.60 in968.5 mb 0.00 in0.0 mm 0.00 in0.0 mm 0.14 in3.6 mm
07:22 AM 35.6°F2.0°C 29.8°F-1.2°C 72% 9.2 mph S14.8 kmh S 15.2 mph24.5 kmh 28.59 in968.2 mb 0.00 in0.0 mm 0.00 in0.0 mm 0.14 in3.6 mm
07:18 AM 35.6°F2.0°C 29.8°F-1.2°C 72% 6.0 mph SE9.7 kmh SE 8.3 mph13.4 kmh 28.59 in968.2 mb 0.00 in0.0 mm 0.00 in0.0 mm 0.14 in3.6 mm
07:17 AM 35.6°F2.0°C 29.8°F-1.2°C 72% 7.6 mph SW12.2 kmh SW 11.4 mph18.3 kmh 28.59 in968.2 mb 0.00 in0.0 mm 0.00 in0.0 mm 0.14 in3.6 mm
07:13 AM 35.6°F2.0°C 29.5°F-1.4°C 71% 9.8 mph WSW15.8 kmh WSW 13.0 mph20.9 kmh 28.59 in968.2 mb 0.00 in0.0 mm 0.00 in0.0 mm 0.14 in3.6 mm
07:08 AM 35.6°F2.0°C 29.5°F-1.4°C 71% 4.5 mph SE7.2 kmh SE 8.3 mph13.4 kmh 28.59 in968.2 mb 0.00 in0.0 mm 0.00 in0.0 mm 0.14 in3.6 mm
07:03 AM 35.4°F1.9°C 29.6°F-1.3°C 72% 10.7 mph S17.2 kmh S 15.2 mph24.5 kmh 28.59 in968.2 mb 0.00 in0.0 mm 0.00 in0.0 mm 0.14 in3.6 mm
07:02 AM 35.4°F1.9°C 29.6°F-1.3°C 72% 6.0 mph S9.7 kmh S 9.2 mph14.8 kmh 28.59 in968.2 mb 0.00 in0.0 mm 0.00 in0.0 mm 0.14 in3.6 mm
06:58 AM 35.4°F1.9°C 29.6°F-1.3°C 72% 9.2 mph S14.8 kmh S 10.7 mph17.2 kmh 28.59 in968.2 mb 0.00 in0.0 mm 0.00 in0.0 mm 0.14 in3.6 mm
06:57 AM 35.4°F1.9°C 29.6°F-1.3°C 72% 8.3 mph NNE13.4 kmh NNE 10.7 mph17.2 kmh 28.59 in968.2 mb 0.00 in0.0 mm 0.00 in0.0 mm 0.14 in3.6 mm
06:53 AM 35.4°F1.9°C 29.6°F-1.3°C 72% 3.8 mph SE6.1 kmh SE 6.9 mph11.1 kmh 28.58 in967.8 mb 0.00 in0.0 mm 0.00 in0.0 mm 0.14 in3.6 mm
06:48 AM 35.6°F2.0°C 29.5°F-1.4°C 71% 7.6 mph S12.2 kmh S 10.7 mph17.2 kmh 28.59 in968.2 mb 0.00 in0.0 mm 0.00 in0.0 mm 0.14 in3.6 mm
06:43 AM 35.6°F2.0°C 29.5°F-1.4°C 71% 7.6 mph SE12.2 kmh SE 15.2 mph24.5 kmh 28.58 in967.8 mb 0.00 in0.0 mm 0.00 in0.0 mm 0.14 in3.6 mm
06:42 AM 35.4°F1.9°C 29.6°F-1.3°C 72% 6.9 mph SW11.1 kmh SW 10.7 mph17.2 kmh 28.58 in967.8 mb 0.00 in0.0 mm 0.00 in0.0 mm 0.14 in3.6 mm
06:38 AM 35.4°F1.9°C 29.8°F-1.2°C 73% 6.9 mph SE11.1 kmh SE 8.3 mph13.4 kmh 28.58 in967.8 mb 0.00 in0.0 mm 0.00 in0.0 mm 0.14 in3.6 mm
06:37 AM 35.4°F1.9°C 29.8°F-1.2°C 73% 6.9 mph E11.1 kmh E 10.7 mph17.2 kmh 28.58 in967.8 mb 0.00 in0.0 mm 0.00 in0.0 mm 0.14 in3.6 mm
06:33 AM 35.2°F1.8°C 29.6°F-1.3°C 73% 9.2 mph S14.8 kmh S 17.4 mph28.0 kmh 28.58 in967.8 mb 0.00 in0.0 mm 0.00 in0.0 mm 0.14 in3.6 mm
06:28 AM 35.2°F1.8°C 29.6°F-1.3°C 73% 4.5 mph S7.2 kmh S 6.0 mph9.7 kmh 28.59 in968.2 mb 0.00 in0.0 mm 0.00 in0.0 mm 0.14 in3.6 mm
06:23 AM 35.2°F1.8°C 29.6°F-1.3°C 73% 6.0 mph SE9.7 kmh SE 13.6 mph21.9 kmh 28.58 in967.8 mb 0.00 in0.0 mm 0.00 in0.0 mm 0.14 in3.6 mm
06:22 AM 35.2°F1.8°C 29.6°F-1.3°C 73% 6.9 mph S11.1 kmh S 12.1 mph19.5 kmh 28.58 in967.8 mb 0.00 in0.0 mm 0.00 in0.0 mm 0.14 in3.6 mm
06:18 AM 35.2°F1.8°C 29.6°F-1.3°C 73% 6.9 mph S11.1 kmh S 11.4 mph18.3 kmh 28.57 in967.5 mb 0.00 in0.0 mm 0.00 in0.0 mm 0.14 in3.6 mm
06:17 AM 35.2°F1.8°C 29.6°F-1.3°C 73% 6.9 mph S11.1 kmh S 10.7 mph17.2 kmh 28.58 in967.8 mb 0.00 in0.0 mm 0.00 in0.0 mm 0.14 in3.6 mm
06:13 AM 35.1°F1.7°C 29.5°F-1.4°C 73% 6.0 mph SE9.7 kmh SE 10.7 mph17.2 kmh 28.57 in967.5 mb 0.00 in0.0 mm 0.00 in0.0 mm 0.14 in3.6 mm
06:08 AM 35.1°F1.7°C 29.7°F-1.3°C 74% 6.9 mph SE11.1 kmh SE 8.3 mph13.4 kmh 28.57 in967.5 mb 0.00 in0.0 mm 0.00 in0.0 mm 0.14 in3.6 mm
06:03 AM 35.1°F1.7°C 29.7°F-1.3°C 74% 9.2 mph SE14.8 kmh SE 13.0 mph20.9 kmh 28.57 in967.5 mb 0.00 in0.0 mm 0.00 in0.0 mm 0.14 in3.6 mm
06:02 AM 35.1°F1.7°C 29.7°F-1.3°C 74% 6.9 mph SE11.1 kmh SE 9.2 mph14.8 kmh 28.57 in967.5 mb 0.00 in0.0 mm 0.00 in0.0 mm 0.14 in3.6 mm
05:58 AM 34.9°F1.6°C 29.8°F-1.2°C 75% 4.5 mph S7.2 kmh S 6.9 mph11.1 kmh 28.57 in967.5 mb 0.00 in0.0 mm 0.00 in0.0 mm 0.14 in3.6 mm
05:57 AM 35.1°F1.7°C 29.7°F-1.3°C 74% 8.3 mph S13.4 kmh S 13.6 mph21.9 kmh 28.57 in967.5 mb 0.00 in0.0 mm 0.00 in0.0 mm 0.14 in3.6 mm
05:53 AM 34.9°F1.6°C 29.8°F-1.2°C 75% 6.9 mph S11.1 kmh S 11.4 mph18.3 kmh 28.56 in967.2 mb 0.00 in0.0 mm 0.00 in0.0 mm 0.14 in3.6 mm
05:48 AM 34.9°F1.6°C 29.8°F-1.2°C 75% 9.8 mph S15.8 kmh S 15.2 mph24.5 kmh 28.56 in967.2 mb 0.00 in0.0 mm 0.00 in0.0 mm 0.14 in3.6 mm
05:43 AM 34.9°F1.6°C 29.8°F-1.2°C 75% 6.0 mph SW9.7 kmh SW 9.8 mph15.8 kmh 28.56 in967.2 mb 0.00 in0.0 mm 0.00 in0.0 mm 0.14 in3.6 mm
05:42 AM 34.9°F1.6°C 30.0°F-1.1°C 76% 7.6 mph S12.2 kmh S 12.1 mph19.5 kmh 28.56 in967.2 mb 0.00 in0.0 mm 0.00 in0.0 mm 0.14 in3.6 mm
05:38 AM 34.7°F1.5°C 29.8°F-1.2°C 76% 5.4 mph WSW8.7 kmh WSW 7.6 mph12.2 kmh 28.57 in967.5 mb 0.00 in0.0 mm 0.00 in0.0 mm 0.14 in3.6 mm
05:37 AM 34.7°F1.5°C 29.8°F-1.2°C 76% 8.3 mph SW13.4 kmh SW 9.8 mph15.8 kmh 28.56 in967.2 mb 0.00 in0.0 mm 0.00 in0.0 mm 0.14 in3.6 mm
05:33 AM 34.7°F1.5°C 29.8°F-1.2°C 76% 9.2 mph S14.8 kmh S 9.8 mph15.8 kmh 28.56 in967.2 mb 0.00 in0.0 mm 0.00 in0.0 mm 0.14 in3.6 mm
05:28 AM 34.5°F1.4°C 29.4°F-1.4°C 75% 6.0 mph S9.7 kmh S 9.2 mph14.8 kmh 28.56 in967.2 mb 0.00 in0.0 mm 0.00 in0.0 mm 0.14 in3.6 mm
05:23 AM 34.5°F1.4°C 29.4°F-1.4°C 75% 6.9 mph S11.1 kmh S 13.0 mph20.9 kmh 28.56 in967.2 mb 0.00 in0.0 mm 0.00 in0.0 mm 0.14 in3.6 mm
05:22 AM 34.7°F1.5°C 29.6°F-1.3°C 75% 6.0 mph SE9.7 kmh SE 9.2 mph14.8 kmh 28.56 in967.2 mb 0.00 in0.0 mm 0.00 in0.0 mm 0.14 in3.6 mm
05:18 AM 34.7°F1.5°C 29.6°F-1.3°C 75% 6.0 mph S9.7 kmh S 9.2 mph14.8 kmh 28.56 in967.2 mb 0.00 in0.0 mm 0.00 in0.0 mm 0.14 in3.6 mm
05:17 AM 34.7°F1.5°C 29.6°F-1.3°C 75% 6.0 mph SE9.7 kmh SE 11.4 mph18.3 kmh 28.56 in967.2 mb 0.00 in0.0 mm 0.00 in0.0 mm 0.14 in3.6 mm
05:13 AM 34.7°F1.5°C 29.6°F-1.3°C 75% 6.9 mph S11.1 kmh S 10.7 mph17.2 kmh 28.56 in967.2 mb 0.00 in0.0 mm 0.00 in0.0 mm 0.14 in3.6 mm
05:08 AM 34.5°F1.4°C 29.4°F-1.4°C 75% 8.3 mph S13.4 kmh S 13.6 mph21.9 kmh 28.56 in967.2 mb 0.00 in0.0 mm 0.00 in0.0 mm 0.14 in3.6 mm
05:03 AM 34.5°F1.4°C 29.2°F-1.6°C 74% 6.9 mph SW11.1 kmh SW 10.7 mph17.2 kmh 28.56 in967.2 mb 0.00 in0.0 mm 0.00 in0.0 mm 0.14 in3.6 mm
05:02 AM 34.5°F1.4°C 29.2°F-1.6°C 74% 7.6 mph S12.2 kmh S 11.4 mph18.3 kmh 28.56 in967.2 mb 0.00 in0.0 mm 0.00 in0.0 mm 0.14 in3.6 mm
04:58 AM 34.9°F1.6°C 29.5°F-1.4°C 74% 6.9 mph S11.1 kmh S 9.8 mph15.8 kmh 28.56 in967.2 mb 0.00 in0.0 mm 0.00 in0.0 mm 0.14 in3.6 mm
04:57 AM 34.7°F1.5°C 29.4°F-1.4°C 74% 3.8 mph SW6.1 kmh SW 6.0 mph9.7 kmh 28.56 in967.2 mb 0.00 in0.0 mm 0.00 in0.0 mm 0.14 in3.6 mm
04:53 AM 34.9°F1.6°C 29.5°F-1.4°C 74% 8.3 mph S13.4 kmh S 15.9 mph25.6 kmh 28.56 in967.2 mb 0.00 in0.0 mm 0.00 in0.0 mm 0.14 in3.6 mm
04:48 AM 35.1°F1.7°C 29.5°F-1.4°C 73% 3.8 mph S6.1 kmh S 7.6 mph12.2 kmh 28.56 in967.2 mb 0.00 in0.0 mm 0.00 in0.0 mm 0.14 in3.6 mm
04:43 AM 35.1°F1.7°C 29.5°F-1.4°C 73% 9.8 mph S15.8 kmh S 13.0 mph20.9 kmh 28.56 in967.2 mb 0.00 in0.0 mm 0.00 in0.0 mm 0.14 in3.6 mm
04:42 AM 35.1°F1.7°C 29.5°F-1.4°C 73% 4.5 mph S7.2 kmh S 7.6 mph12.2 kmh 28.56 in967.2 mb 0.00 in0.0 mm 0.00 in0.0 mm 0.14 in3.6 mm
04:38 AM 34.9°F1.6°C 29.3°F-1.5°C 73% 7.6 mph SW12.2 kmh SW 10.7 mph17.2 kmh 28.55 in966.8 mb 0.00 in0.0 mm 0.00 in0.0 mm 0.14 in3.6 mm
04:37 AM 34.9°F1.6°C 29.3°F-1.5°C 73% 5.4 mph S8.7 kmh S 7.6 mph12.2 kmh 28.56 in967.2 mb 0.00 in0.0 mm 0.00 in0.0 mm 0.14 in3.6 mm
04:33 AM 35.1°F1.7°C 29.5°F-1.4°C 73% 5.4 mph S8.7 kmh S 8.3 mph13.4 kmh 28.55 in966.8 mb 0.00 in0.0 mm 0.00 in0.0 mm 0.14 in3.6 mm
04:28 AM 35.1°F1.7°C 29.5°F-1.4°C 73% 6.0 mph SW9.7 kmh SW 9.2 mph14.8 kmh 28.55 in966.8 mb 0.00 in0.0 mm 0.00 in0.0 mm 0.14 in3.6 mm
04:23 AM 35.2°F1.8°C 29.4°F-1.4°C 72% 9.8 mph S15.8 kmh S 13.6 mph21.9 kmh 28.55 in966.8 mb 0.00 in0.0 mm 0.00 in0.0 mm 0.14 in3.6 mm
04:22 AM 35.2°F1.8°C 29.4°F-1.4°C 72% 9.2 mph S14.8 kmh S 13.0 mph20.9 kmh 28.55 in966.8 mb 0.00 in0.0 mm 0.00 in0.0 mm 0.14 in3.6 mm
04:18 AM 35.2°F1.8°C 29.4°F-1.4°C 72% 6.0 mph NNW9.7 kmh NNW 9.2 mph14.8 kmh 28.55 in966.8 mb 0.00 in0.0 mm 0.00 in0.0 mm 0.14 in3.6 mm
04:17 AM 35.2°F1.8°C 29.4°F-1.4°C 72% 9.2 mph SW14.8 kmh SW 13.0 mph20.9 kmh 28.55 in966.8 mb 0.00 in0.0 mm 0.00 in0.0 mm 0.14 in3.6 mm
04:13 AM 35.2°F1.8°C 29.4°F-1.4°C 72% 5.4 mph SW8.7 kmh SW 9.2 mph14.8 kmh 28.56 in967.2 mb 0.00 in0.0 mm 0.00 in0.0 mm 0.14 in3.6 mm
04:08 AM 35.2°F1.8°C 29.4°F-1.4°C 72% 4.5 mph SE7.2 kmh SE 9.8 mph15.8 kmh 28.55 in966.8 mb 0.00 in0.0 mm 0.00 in0.0 mm 0.14 in3.6 mm
04:03 AM 35.2°F1.8°C 29.4°F-1.4°C 72% 7.6 mph SW12.2 kmh SW 12.1 mph19.5 kmh 28.55 in966.8 mb 0.00 in0.0 mm 0.00 in0.0 mm 0.14 in3.6 mm
04:02 AM 35.2°F1.8°C 29.4°F-1.4°C 72% 6.0 mph SW9.7 kmh SW 7.6 mph12.2 kmh 28.55 in966.8 mb 0.00 in0.0 mm 0.00 in0.0 mm 0.14 in3.6 mm
03:58 AM 35.2°F1.8°C 29.6°F-1.3°C 73% 8.3 mph SW13.4 kmh SW 17.4 mph28.0 kmh 28.55 in966.8 mb 0.00 in0.0 mm 0.00 in0.0 mm 0.14 in3.6 mm
03:57 AM 35.2°F1.8°C 29.4°F-1.4°C 72% 7.6 mph S12.2 kmh S 13.0 mph20.9 kmh 28.56 in967.2 mb 0.00 in0.0 mm 0.00 in0.0 mm 0.14 in3.6 mm
03:53 AM 35.2°F1.8°C 29.6°F-1.3°C 73% 4.5 mph S7.2 kmh S 6.9 mph11.1 kmh 28.55 in966.8 mb 0.00 in0.0 mm 0.00 in0.0 mm 0.14 in3.6 mm
03:48 AM 35.2°F1.8°C 29.6°F-1.3°C 73% 6.0 mph S9.7 kmh S 7.6 mph12.2 kmh 28.55 in966.8 mb 0.00 in0.0 mm 0.00 in0.0 mm 0.14 in3.6 mm
03:43 AM 35.2°F1.8°C 29.9°F-1.2°C 74% 7.6 mph N12.2 kmh N 14.5 mph23.3 kmh 28.55 in966.8 mb 0.00 in0.0 mm 0.00 in0.0 mm 0.14 in3.6 mm
03:42 AM 35.2°F1.8°C 29.9°F-1.2°C 74% 6.0 mph SE9.7 kmh SE 9.8 mph15.8 kmh 28.55 in966.8 mb 0.00 in0.0 mm 0.00 in0.0 mm 0.14 in3.6 mm
03:38 AM 35.2°F1.8°C 29.6°F-1.3°C 73% 5.4 mph NW8.7 kmh NW 8.3 mph13.4 kmh 28.55 in966.8 mb 0.00 in0.0 mm 0.00 in0.0 mm 0.14 in3.6 mm
03:37 AM 35.2°F1.8°C 29.9°F-1.2°C 74% 7.6 mph SE12.2 kmh SE 13.0 mph20.9 kmh 28.55 in966.8 mb 0.00 in0.0 mm 0.00 in0.0 mm 0.14 in3.6 mm
03:33 AM 35.2°F1.8°C 29.6°F-1.3°C 73% 6.0 mph S9.7 kmh S 10.7 mph17.2 kmh 28.54 in966.5 mb 0.00 in0.0 mm 0.00 in0.0 mm 0.14 in3.6 mm
03:28 AM 35.4°F1.9°C 29.8°F-1.2°C 73% 5.4 mph S8.7 kmh S 7.6 mph12.2 kmh 28.55 in966.8 mb 0.00 in0.0 mm 0.00 in0.0 mm 0.14 in3.6 mm
03:23 AM 35.4°F1.9°C 29.6°F-1.3°C 72% 9.8 mph SW15.8 kmh SW 13.0 mph20.9 kmh 28.55 in966.8 mb 0.00 in0.0 mm 0.00 in0.0 mm 0.14 in3.6 mm
03:22 AM 35.4°F1.9°C 29.6°F-1.3°C 72% 7.6 mph S12.2 kmh S 13.0 mph20.9 kmh 28.55 in966.8 mb 0.00 in0.0 mm 0.00 in0.0 mm 0.14 in3.6 mm
03:18 AM 35.4°F1.9°C 29.8°F-1.2°C 73% 7.6 mph S12.2 kmh S 11.4 mph18.3 kmh 28.54 in966.5 mb 0.00 in0.0 mm 0.00 in0.0 mm 0.14 in3.6 mm
03:17 AM 35.4°F1.9°C 29.6°F-1.3°C 72% 11.4 mph S18.3 kmh S 17.4 mph28.0 kmh 28.54 in966.5 mb 0.00 in0.0 mm 0.00 in0.0 mm 0.14 in3.6 mm
03:13 AM 35.4°F1.9°C 29.8°F-1.2°C 73% 7.6 mph SE12.2 kmh SE 15.2 mph24.5 kmh 28.55 in966.8 mb 0.00 in0.0 mm 0.00 in0.0 mm 0.14 in3.6 mm
03:08 AM 35.4°F1.9°C 29.8°F-1.2°C 73% 9.8 mph S15.8 kmh S 14.5 mph23.3 kmh 28.54 in966.5 mb 0.00 in0.0 mm 0.00 in0.0 mm 0.14 in3.6 mm
03:03 AM 35.4°F1.9°C 29.8°F-1.2°C 73% 6.0 mph SE9.7 kmh SE 9.2 mph14.8 kmh 28.54 in966.5 mb 0.00 in0.0 mm 0.00 in0.0 mm 0.14 in3.6 mm
03:02 AM 35.6°F2.0°C 29.8°F-1.2°C 72% 6.0 mph SW9.7 kmh SW 7.6 mph12.2 kmh 28.54 in966.5 mb 0.00 in0.0 mm 0.00 in0.0 mm 0.14 in3.6 mm
02:58 AM 35.6°F2.0°C 29.8°F-1.2°C 72% 6.9 mph S11.1 kmh S 13.0 mph20.9 kmh 28.54 in966.5 mb 0.00 in0.0 mm 0.00 in0.0 mm 0.14 in3.6 mm
02:57 AM 35.6°F2.0°C 29.8°F-1.2°C 72% 7.6 mph S12.2 kmh S 12.1 mph19.5 kmh 28.54 in966.5 mb 0.00 in0.0 mm 0.00 in0.0 mm 0.14 in3.6 mm
02:53 AM 35.6°F2.0°C 29.8°F-1.2°C 72% 7.6 mph NNE12.2 kmh NNE 10.7 mph17.2 kmh 28.54 in966.5 mb 0.00 in0.0 mm 0.00 in0.0 mm 0.14 in3.6 mm
02:48 AM 35.6°F2.0°C 29.8°F-1.2°C 72% 6.9 mph S11.1 kmh S 10.7 mph17.2 kmh 28.54 in966.5 mb 0.00 in0.0 mm 0.00 in0.0 mm 0.14 in3.6 mm
02:43 AM 35.8°F2.1°C 29.9°F-1.2°C 72% 6.0 mph S9.7 kmh S 9.8 mph15.8 kmh 28.54 in966.5 mb 0.00 in0.0 mm 0.00 in0.0 mm 0.14 in3.6 mm
02:42 AM 35.8°F2.1°C 29.9°F-1.2°C 72% 4.5 mph SW7.2 kmh SW 8.3 mph13.4 kmh 28.54 in966.5 mb 0.00 in0.0 mm 0.00 in0.0 mm 0.14 in3.6 mm
02:38 AM 35.8°F2.1°C 29.9°F-1.2°C 72% 6.9 mph S11.1 kmh S 11.4 mph18.3 kmh 28.55 in966.8 mb 0.00 in0.0 mm 0.00 in0.0 mm 0.14 in3.6 mm
02:37 AM 35.8°F2.1°C 29.9°F-1.2°C 72% 6.9 mph S11.1 kmh S 9.8 mph15.8 kmh 28.54 in966.5 mb 0.00 in0.0 mm 0.00 in0.0 mm 0.14 in3.6 mm
02:33 AM 35.8°F2.1°C 29.9°F-1.2°C 72% 5.4 mph S8.7 kmh S 7.6 mph12.2 kmh 28.54 in966.5 mb 0.00 in0.0 mm 0.00 in0.0 mm 0.14 in3.6 mm
02:28 AM 36.0°F2.2°C 29.9°F-1.2°C 71% 5.4 mph S8.7 kmh S 6.9 mph11.1 kmh 28.54 in966.5 mb 0.00 in0.0 mm 0.00 in0.0 mm 0.14 in3.6 mm
02:23 AM 36.0°F2.2°C 29.9°F-1.2°C 71% 5.4 mph SW8.7 kmh SW 9.2 mph14.8 kmh 28.54 in966.5 mb 0.00 in0.0 mm 0.00 in0.0 mm 0.14 in3.6 mm
02:22 AM 36.0°F2.2°C 29.9°F-1.2°C 71% 4.5 mph SW7.2 kmh SW 9.2 mph14.8 kmh 28.54 in966.5 mb 0.00 in0.0 mm 0.00 in0.0 mm 0.14 in3.6 mm
02:18 AM 35.8°F2.1°C 29.9°F-1.2°C 72% 6.9 mph S11.1 kmh S 12.1 mph19.5 kmh 28.54 in966.5 mb 0.00 in0.0 mm 0.00 in0.0 mm 0.14 in3.6 mm
02:17 AM 35.8°F2.1°C 29.9°F-1.2°C 72% 7.6 mph S12.2 kmh S 13.6 mph21.9 kmh 28.54 in966.5 mb 0.00 in0.0 mm 0.00 in0.0 mm 0.14 in3.6 mm
02:13 AM 35.6°F2.0°C 30.2°F-1.0°C 74% 9.8 mph SW15.8 kmh SW 20.6 mph33.2 kmh 28.53 in966.1 mb 0.00 in0.0 mm 0.00 in0.0 mm 0.14 in3.6 mm
02:08 AM 35.4°F1.9°C 30.3°F-0.9°C 75% 7.6 mph S12.2 kmh S 13.0 mph20.9 kmh 28.54 in966.5 mb 0.00 in0.0 mm 0.00 in0.0 mm 0.14 in3.6 mm
02:03 AM 35.4°F1.9°C 30.5°F-0.8°C 76% 6.9 mph SW11.1 kmh SW 9.8 mph15.8 kmh 28.53 in966.1 mb 0.00 in0.0 mm 0.00 in0.0 mm 0.14 in3.6 mm
02:02 AM 35.2°F1.8°C 30.3°F-0.9°C 76% 6.0 mph S9.7 kmh S 10.7 mph17.2 kmh 28.53 in966.1 mb 0.00 in0.0 mm 0.00 in0.0 mm 0.14 in3.6 mm
01:58 AM 35.4°F1.9°C 30.3°F-0.9°C 75% 3.8 mph SW6.1 kmh SW 6.0 mph9.7 kmh 28.53 in966.1 mb 0.00 in0.0 mm 0.00 in0.0 mm 0.14 in3.6 mm
01:57 AM 35.4°F1.9°C 30.3°F-0.9°C 75% 5.4 mph S8.7 kmh S 7.6 mph12.2 kmh 28.53 in966.1 mb 0.00 in0.0 mm 0.00 in0.0 mm 0.14 in3.6 mm
01:53 AM 35.6°F2.0°C 30.2°F-1.0°C 74% 6.0 mph S9.7 kmh S 11.4 mph18.3 kmh 28.53 in966.1 mb 0.00 in0.0 mm 0.00 in0.0 mm 0.14 in3.6 mm
01:48 AM 35.8°F2.1°C 30.4°F-0.9°C 74% 6.9 mph S11.1 kmh S 11.4 mph18.3 kmh 28.53 in966.1 mb 0.00 in0.0 mm 0.00 in0.0 mm 0.14 in3.6 mm
01:43 AM 36.0°F2.2°C 30.6°F-0.8°C 74% 6.0 mph S9.7 kmh S 8.3 mph13.4 kmh 28.53 in966.1 mb 0.00 in0.0 mm 0.00 in0.0 mm 0.14 in3.6 mm
01:42 AM 36.0°F2.2°C 30.6°F-0.8°C 74% 5.4 mph S8.7 kmh S 10.7 mph17.2 kmh 28.53 in966.1 mb 0.00 in0.0 mm 0.00 in0.0 mm 0.14 in3.6 mm
01:38 AM 36.1°F2.3°C 30.7°F-0.7°C 74% 6.9 mph NNW11.1 kmh NNW 11.4 mph18.3 kmh 28.53 in966.1 mb 0.00 in0.0 mm 0.00 in0.0 mm 0.14 in3.6 mm
01:37 AM 36.1°F2.3°C 30.7°F-0.7°C 74% 5.4 mph S8.7 kmh S 6.9 mph11.1 kmh 28.53 in966.1 mb 0.00 in0.0 mm 0.00 in0.0 mm 0.14 in3.6 mm
01:33 AM 36.0°F2.2°C 30.6°F-0.8°C 74% 6.0 mph SE9.7 kmh SE 10.7 mph17.2 kmh 28.53 in966.1 mb 0.00 in0.0 mm 0.00 in0.0 mm 0.14 in3.6 mm
01:28 AM 36.0°F2.2°C 30.6°F-0.8°C 74% 6.9 mph S11.1 kmh S 11.4 mph18.3 kmh 28.53 in966.1 mb 0.00 in0.0 mm 0.00 in0.0 mm 0.14 in3.6 mm
01:23 AM 36.1°F2.3°C 30.7°F-0.7°C 74% 6.9 mph SE11.1 kmh SE 10.7 mph17.2 kmh 28.54 in966.5 mb 0.00 in0.0 mm 0.00 in0.0 mm 0.14 in3.6 mm
01:22 AM 36.1°F2.3°C 30.7°F-0.7°C 74% 6.0 mph SW9.7 kmh SW 9.8 mph15.8 kmh 28.53 in966.1 mb 0.00 in0.0 mm 0.00 in0.0 mm 0.14 in3.6 mm
01:18 AM 36.1°F2.3°C 30.7°F-0.7°C 74% 9.2 mph SW14.8 kmh SW 15.9 mph25.6 kmh 28.53 in966.1 mb 0.00 in0.0 mm 0.00 in0.0 mm 0.14 in3.6 mm
01:17 AM 36.1°F2.3°C 30.7°F-0.7°C 74% 9.8 mph SW15.8 kmh SW 13.0 mph20.9 kmh 28.53 in966.1 mb 0.00 in0.0 mm 0.00 in0.0 mm 0.14 in3.6 mm
01:13 AM 36.1°F2.3°C 30.7°F-0.7°C 74% 6.9 mph SW11.1 kmh SW 11.4 mph18.3 kmh 28.52 in965.8 mb 0.00 in0.0 mm 0.00 in0.0 mm 0.14 in3.6 mm
01:08 AM 36.1°F2.3°C 30.7°F-0.7°C 74% 5.4 mph SW8.7 kmh SW 8.3 mph13.4 kmh 28.53 in966.1 mb 0.00 in0.0 mm 0.00 in0.0 mm 0.14 in3.6 mm
01:03 AM 36.3°F2.4°C 30.9°F-0.6°C 74% 6.0 mph SW9.7 kmh SW 9.2 mph14.8 kmh 28.52 in965.8 mb 0.00 in0.0 mm 0.00 in0.0 mm 0.14 in3.6 mm
01:02 AM 36.3°F2.4°C 30.9°F-0.6°C 74% 4.5 mph SW7.2 kmh SW 6.9 mph11.1 kmh 28.53 in966.1 mb 0.00 in0.0 mm 0.00 in0.0 mm 0.14 in3.6 mm
12:58 AM 36.5°F2.5°C 31.6°F-0.2°C 76% 10.7 mph SW17.2 kmh SW 13.6 mph21.9 kmh 28.53 in966.1 mb 0.00 in0.0 mm 0.00 in0.0 mm 0.14 in3.6 mm
12:57 AM 36.5°F2.5°C 31.3°F-0.4°C 75% 5.4 mph S8.7 kmh S 8.3 mph13.4 kmh 28.52 in965.8 mb 0.00 in0.0 mm 0.00 in0.0 mm 0.14 in3.6 mm
12:53 AM 36.5°F2.5°C 31.8°F-0.1°C 77% 6.0 mph S9.7 kmh S 7.6 mph12.2 kmh 28.53 in966.1 mb 0.00 in0.0 mm 0.00 in0.0 mm 0.14 in3.6 mm
12:48 AM 36.5°F2.5°C 32.0°F0.0°C 78% 7.6 mph S12.2 kmh S 11.4 mph18.3 kmh 28.52 in965.8 mb 0.00 in0.0 mm 0.00 in0.0 mm 0.14 in3.6 mm
12:43 AM 36.5°F2.5°C 32.2°F0.1°C 79% 9.2 mph SW14.8 kmh SW 12.1 mph19.5 kmh 28.52 in965.8 mb 0.00 in0.0 mm 0.00 in0.0 mm 0.14 in3.6 mm
12:42 AM 36.5°F2.5°C 32.2°F0.1°C 79% 9.2 mph SE14.8 kmh SE 10.7 mph17.2 kmh 28.52 in965.8 mb 0.00 in0.0 mm 0.00 in0.0 mm 0.14 in3.6 mm
12:38 AM 36.5°F2.5°C 32.2°F0.1°C 79% 9.2 mph SW14.8 kmh SW 14.5 mph23.3 kmh 28.52 in965.8 mb 0.00 in0.0 mm 0.00 in0.0 mm 0.14 in3.6 mm
12:37 AM 36.5°F2.5°C 32.2°F0.1°C 79% 9.8 mph S15.8 kmh S 14.5 mph23.3 kmh 28.52 in965.8 mb 0.00 in0.0 mm 0.00 in0.0 mm 0.14 in3.6 mm
12:33 AM 36.5°F2.5°C 32.2°F0.1°C 79% 9.2 mph S14.8 kmh S 16.8 mph27.0 kmh 28.52 in965.8 mb 0.00 in0.0 mm 0.00 in0.0 mm 0.14 in3.6 mm
12:28 AM 36.5°F2.5°C 32.5°F0.3°C 80% 10.7 mph SE17.2 kmh SE 15.2 mph24.5 kmh 28.52 in965.8 mb 0.00 in0.0 mm 0.00 in0.0 mm 0.14 in3.6 mm
12:23 AM 36.5°F2.5°C 32.5°F0.3°C 80% 7.6 mph SE12.2 kmh SE 9.8 mph15.8 kmh 28.52 in965.8 mb 0.00 in0.0 mm 0.00 in0.0 mm 0.14 in3.6 mm
12:22 AM 36.5°F2.5°C 32.5°F0.3°C 80% 8.3 mph SW13.4 kmh SW 9.2 mph14.8 kmh 28.52 in965.8 mb 0.00 in0.0 mm 0.00 in0.0 mm 0.14 in3.6 mm
12:18 AM 36.5°F2.5°C 32.5°F0.3°C 80% 6.0 mph S9.7 kmh S 11.4 mph18.3 kmh 28.52 in965.8 mb 0.00 in0.0 mm 0.00 in0.0 mm 0.14 in3.6 mm
12:17 AM 36.5°F2.5°C 32.5°F0.3°C 80% 6.9 mph S11.1 kmh S 11.4 mph18.3 kmh 28.51 in965.5 mb 0.00 in0.0 mm 0.00 in0.0 mm 0.14 in3.6 mm
12:13 AM 36.7°F2.6°C 32.6°F0.3°C 80% 5.4 mph S8.7 kmh S 9.8 mph15.8 kmh 28.51 in965.5 mb 0.00 in0.0 mm 0.00 in0.0 mm 0.14 in3.6 mm
12:08 AM 36.7°F2.6°C 32.6°F0.3°C 80% 8.3 mph S13.4 kmh S 10.7 mph17.2 kmh 28.51 in965.5 mb 0.00 in0.0 mm 0.00 in0.0 mm 0.14 in3.6 mm
12:03 AM 36.7°F2.6°C 32.6°F0.3°C 80% 8.3 mph S13.4 kmh S 13.0 mph20.9 kmh 28.51 in965.5 mb 0.00 in0.0 mm 0.00 in0.0 mm 0.14 in3.6 mm
12:02 AM 36.7°F2.6°C 32.6°F0.3°C 80% 6.9 mph SW11.1 kmh SW 12.1 mph19.5 kmh 28.51 in965.5 mb 0.00 in0.0 mm 0.00 in0.0 mm 0.14 in3.6 mm